createdAt,value
2018-03-22T00:01:43.215Z,12.73
2018-03-22T00:04:10.888Z,12.27
2018-03-22T00:06:38.526Z,12.33
2018-03-22T00:09:06.215Z,13.20
2018-03-22T00:11:33.866Z,12.80
2018-03-22T00:14:01.533Z,14.27
2018-03-22T00:16:30.353Z,12.73
2018-03-22T00:18:58.030Z,13.63
2018-03-22T00:21:25.686Z,13.83
2018-03-22T00:23:53.370Z,13.90
2018-03-22T00:26:21.012Z,14.53
2018-03-22T00:28:48.721Z,14.60
2018-03-22T00:31:17.158Z,15.23
2018-03-22T00:33:44.824Z,15.70
2018-03-22T00:36:12.478Z,15.87
2018-03-22T00:38:40.126Z,15.73
2018-03-22T00:41:07.804Z,16.73
2018-03-22T00:43:35.450Z,16.13
2018-03-22T00:46:03.219Z,16.20
2018-03-22T00:48:30.883Z,17.00
2018-03-22T00:50:58.561Z,16.47
2018-03-22T00:53:26.232Z,16.77
2018-03-22T00:55:53.922Z,17.33
2018-03-22T00:58:21.600Z,19.33
2018-03-22T01:00:49.299Z,16.37
2018-03-22T01:03:16.951Z,17.67
2018-03-22T01:05:44.584Z,18.30
2018-03-22T01:08:12.247Z,17.70
2018-03-22T01:10:39.946Z,17.80
2018-03-22T01:13:07.589Z,17.97
2018-03-22T01:15:35.507Z,18.87
2018-03-22T01:18:03.144Z,17.47
2018-03-22T01:20:30.776Z,18.03
2018-03-22T01:22:58.434Z,19.97
2018-03-22T01:25:26.123Z,20.63
2018-03-22T01:27:53.785Z,21.20
2018-03-22T01:30:33.076Z,21.23
2018-03-22T01:33:00.724Z,23.17
2018-03-22T01:35:28.959Z,21.90
2018-03-22T01:37:56.571Z,23.17
2018-03-22T01:40:24.252Z,23.23
2018-03-22T01:42:51.902Z,23.50
2018-03-22T01:45:19.590Z,23.57
2018-03-22T01:47:47.241Z,23.37
2018-03-22T01:50:14.897Z,24.03
2018-03-22T01:52:54.284Z,23.47
2018-03-22T01:55:21.887Z,24.53
2018-03-22T01:57:49.562Z,24.27
2018-03-22T02:00:18.006Z,24.63
2018-03-22T02:02:45.672Z,25.17
2018-03-22T02:05:13.333Z,24.20
2018-03-22T02:07:41.000Z,26.83
2018-03-22T02:10:08.704Z,25.13
2018-03-22T02:12:36.362Z,25.20
2018-03-22T02:15:04.119Z,26.57
2018-03-22T02:17:31.787Z,24.97
2018-03-22T02:19:59.452Z,27.23
2018-03-22T02:22:27.864Z,25.10
2018-03-22T02:24:55.504Z,23.97
2018-03-22T02:27:23.158Z,25.60
2018-03-22T02:29:50.802Z,24.50
2018-03-22T02:32:18.436Z,23.60
2018-03-22T02:34:46.072Z,24.37
2018-03-22T02:37:13.741Z,24.57
2018-03-22T02:39:41.392Z,24.13
2018-03-22T02:42:09.036Z,23.07
2018-03-22T02:44:37.487Z,23.13
2018-03-22T02:47:05.212Z,23.07
2018-03-22T02:49:32.880Z,22.70
2018-03-22T02:52:00.520Z,22.80
2018-03-22T02:54:28.164Z,23.20
2018-03-22T02:56:56.600Z,21.73
2018-03-22T02:59:24.252Z,22.67
2018-03-22T03:01:51.920Z,22.40
2018-03-22T03:04:19.588Z,22.43
2018-03-22T03:06:47.246Z,22.13
2018-03-22T03:09:14.897Z,23.03
2018-03-22T03:11:42.566Z,23.03
2018-03-22T03:14:10.212Z,22.83
2018-03-22T03:16:46.654Z,24.03
2018-03-22T03:19:14.309Z,24.33
2018-03-22T03:21:41.941Z,24.87
2018-03-22T03:24:10.092Z,25.73
2018-03-22T03:26:37.766Z,26.03
2018-03-22T03:29:05.432Z,26.40
2018-03-22T03:31:33.110Z,27.17
2018-03-22T03:34:00.764Z,28.23
2018-03-22T03:36:28.464Z,28.30
2018-03-22T03:38:56.098Z,28.60
2018-03-22T03:41:23.753Z,26.93
2018-03-22T03:43:51.428Z,28.10
2018-03-22T03:46:31.788Z,28.83
2018-03-22T03:48:59.444Z,28.43
2018-03-22T03:51:27.100Z,31.27
2018-03-22T03:53:54.743Z,29.70
2018-03-22T03:56:22.404Z,30.23
2018-03-22T03:58:50.075Z,31.17
2018-03-22T04:01:17.739Z,31.40
2018-03-22T04:03:45.422Z,32.43
2018-03-22T04:06:13.049Z,30.47
2018-03-22T04:08:40.690Z,33.10
2018-03-22T04:11:09.136Z,33.00
2018-03-22T04:13:36.790Z,34.07
2018-03-22T04:16:07.814Z,34.80
2018-03-22T04:18:35.491Z,33.80
2018-03-22T04:21:03.143Z,32.63
2018-03-22T04:23:30.788Z,34.87
2018-03-22T04:25:58.465Z,33.67
2018-03-22T04:28:26.109Z,33.03
2018-03-22T04:30:53.768Z,33.57
2018-03-22T04:33:22.218Z,33.97
2018-03-22T04:35:49.844Z,33.77
2018-03-22T04:38:17.478Z,34.43
2018-03-22T04:40:45.125Z,35.03
2018-03-22T04:43:13.574Z,35.27
2018-03-22T04:45:44.655Z,37.30
2018-03-22T04:48:13.084Z,36.70
2018-03-22T04:50:40.773Z,35.60
2018-03-22T04:53:08.438Z,38.80
2018-03-22T04:55:36.090Z,39.43
2018-03-22T04:58:03.783Z,38.27
2018-03-22T05:00:32.227Z,40.83
2018-03-22T05:02:59.879Z,42.53
2018-03-22T05:05:28.356Z,39.83
2018-03-22T05:07:55.979Z,41.03
2018-03-22T05:10:23.641Z,49.53
2018-03-22T05:12:52.078Z,45.43
2018-03-22T05:15:23.400Z,41.63
2018-03-22T05:17:51.049Z,40.80
2018-03-22T05:20:18.692Z,45.17
2018-03-22T05:22:47.121Z,45.03
2018-03-22T05:25:14.803Z,49.40
2018-03-22T05:27:42.448Z,44.47
2018-03-22T05:30:11.363Z,45.97
2018-03-22T05:32:39.028Z,48.63
2018-03-22T05:35:07.129Z,46.07
2018-03-22T05:37:34.784Z,45.93
2018-03-22T05:40:02.554Z,42.03
2018-03-22T05:42:31.005Z,42.20
2018-03-22T05:44:58.658Z,43.97
2018-03-22T05:47:26.308Z,47.47
2018-03-22T05:49:53.965Z,40.27
2018-03-22T05:52:22.530Z,40.20
2018-03-22T05:54:50.191Z,40.13
2018-03-22T05:57:17.838Z,42.57
2018-03-22T05:59:46.280Z,38.10
2018-03-22T06:02:13.943Z,37.77
2018-03-22T06:04:41.526Z,36.37
2018-03-22T06:07:09.203Z,37.40
2018-03-22T06:09:36.858Z,38.93
2018-03-22T06:12:04.896Z,41.23
2018-03-22T06:14:32.570Z,42.40
2018-03-22T06:17:00.228Z,38.93
2018-03-22T06:19:27.896Z,40.30
2018-03-22T06:21:55.586Z,39.90
2018-03-22T06:24:23.247Z,36.87
2018-03-22T06:26:50.905Z,37.00
2018-03-22T06:29:18.552Z,36.97
2018-03-22T06:31:46.223Z,39.13
2018-03-22T06:34:13.888Z,41.07
2018-03-22T06:36:48.825Z,45.33
2018-03-22T06:39:16.442Z,40.07
2018-03-22T06:41:44.110Z,36.80
2018-03-22T06:44:11.760Z,40.67
2018-03-22T06:46:39.444Z,40.77
2018-03-22T06:49:07.064Z,39.73
2018-03-22T06:51:34.703Z,41.80
2018-03-22T06:54:02.405Z,41.73
2018-03-22T06:56:33.937Z,40.90
2018-03-22T06:59:01.600Z,36.30
2018-03-22T07:01:29.261Z,41.87
2018-03-22T07:03:57.669Z,40.30
2018-03-22T07:06:25.330Z,39.60
2018-03-22T07:08:52.996Z,41.57
2018-03-22T07:11:20.655Z,39.20
2018-03-22T07:13:48.332Z,38.00
2018-03-22T07:16:16.002Z,40.10
2018-03-22T07:18:43.667Z,36.83
2018-03-22T07:21:11.314Z,35.97
2018-03-22T07:23:38.969Z,34.67
2018-03-22T07:26:13.986Z,37.03
2018-03-22T07:28:42.416Z,37.77
2018-03-22T07:31:10.070Z,35.53
2018-03-22T07:33:38.491Z,35.40
2018-03-22T07:36:06.131Z,37.30
2018-03-22T07:38:38.287Z,33.00
2018-03-22T07:41:06.271Z,32.23
2018-03-22T07:43:40.164Z,33.17
2018-03-22T07:46:08.111Z,30.40
2018-03-22T07:48:35.762Z,31.20
2018-03-22T07:51:03.431Z,32.20
2018-03-22T07:53:31.108Z,32.10
2018-03-22T07:55:58.757Z,31.57
2018-03-22T07:58:26.456Z,30.60
2018-03-22T08:00:54.877Z,31.63
2018-03-22T08:03:22.509Z,30.40
2018-03-22T08:05:50.212Z,28.97
2018-03-22T08:08:17.860Z,27.93
2018-03-22T08:10:46.270Z,28.33
2018-03-22T08:13:13.894Z,27.70
2018-03-22T08:15:41.586Z,29.77
2018-03-22T08:18:10.953Z,29.57
2018-03-22T08:20:38.589Z,29.40
2018-03-22T08:23:06.254Z,27.87
2018-03-22T08:25:33.906Z,27.10
2018-03-22T08:28:01.579Z,25.73
2018-03-22T08:30:29.236Z,26.80
2018-03-22T08:32:57.036Z,27.17
2018-03-22T08:35:24.691Z,27.03
2018-03-22T08:37:52.378Z,28.17
2018-03-22T08:40:20.805Z,27.73
2018-03-22T08:42:48.461Z,27.67
2018-03-22T08:45:18.282Z,27.00
2018-03-22T08:47:45.922Z,26.20
2018-03-22T08:50:13.577Z,25.77
2018-03-22T08:52:41.196Z,27.07
2018-03-22T08:55:08.844Z,23.83
2018-03-22T08:57:37.285Z,23.90
2018-03-22T09:00:04.948Z,22.67
2018-03-22T09:02:32.631Z,23.57
2018-03-22T09:05:00.292Z,21.87
2018-03-22T09:07:27.954Z,23.27
2018-03-22T09:09:55.622Z,22.57
2018-03-22T09:12:23.286Z,22.00
2018-03-22T09:14:50.970Z,22.70
2018-03-22T09:17:18.549Z,23.53
2018-03-22T09:19:46.173Z,23.97
2018-03-22T09:22:13.857Z,24.13
2018-03-22T09:24:41.503Z,24.13
2018-03-22T09:27:09.253Z,25.57
2018-03-22T09:29:36.883Z,24.47
2018-03-22T09:32:04.609Z,24.57
2018-03-22T09:34:32.280Z,24.53
2018-03-22T09:37:00.867Z,24.77
2018-03-22T09:39:28.519Z,25.40
2018-03-22T09:41:56.171Z,25.17
2018-03-22T09:44:23.819Z,23.70
2018-03-22T09:46:51.490Z,22.73
2018-03-22T09:49:19.137Z,21.13
2018-03-22T09:51:46.813Z,19.53
2018-03-22T09:54:14.480Z,18.10
2018-03-22T09:56:42.126Z,18.27
2018-03-22T09:59:09.786Z,17.47
2018-03-22T10:01:37.442Z,16.80
2018-03-22T10:04:05.081Z,16.90
2018-03-22T10:06:32.712Z,16.70
2018-03-22T10:09:00.382Z,17.80
2018-03-22T10:11:28.007Z,17.40
2018-03-22T10:13:55.669Z,17.17
2018-03-22T10:16:23.332Z,16.07
2018-03-22T10:18:50.952Z,17.43
2018-03-22T10:21:18.618Z,17.23
2018-03-22T10:23:46.247Z,19.17
2018-03-22T10:26:13.934Z,20.07
2018-03-22T10:28:41.595Z,19.43
2018-03-22T10:31:09.286Z,19.97
2018-03-22T10:33:37.698Z,18.73
2018-03-22T10:36:08.892Z,19.83
2018-03-22T10:38:36.553Z,20.07
2018-03-22T10:41:04.217Z,19.13
2018-03-22T10:43:31.881Z,20.57
2018-03-22T10:45:59.554Z,20.33
2018-03-22T10:48:27.201Z,20.57
2018-03-22T10:50:54.864Z,21.37
2018-03-22T10:53:22.509Z,20.37
2018-03-22T10:55:50.171Z,20.47
2018-03-22T10:58:18.983Z,20.60
2018-03-22T11:00:53.013Z,21.03
2018-03-22T11:03:26.230Z,21.60
2018-03-22T11:05:53.906Z,21.67
2018-03-22T11:08:21.570Z,20.40
2018-03-22T11:10:49.981Z,20.83
2018-03-22T11:13:17.650Z,20.47
2018-03-22T11:15:45.318Z,21.70
2018-03-22T11:18:12.941Z,20.23
2018-03-22T11:20:40.618Z,20.33
2018-03-22T11:23:08.304Z,19.73
2018-03-22T11:25:35.918Z,20.47
2018-03-22T11:28:03.578Z,20.47
2018-03-22T11:30:31.231Z,20.60
2018-03-22T11:32:58.881Z,20.67
2018-03-22T11:35:26.544Z,19.47
2018-03-22T11:37:54.945Z,19.60
2018-03-22T11:40:22.583Z,19.30
2018-03-22T11:42:50.224Z,20.80
2018-03-22T11:45:20.124Z,18.93
2018-03-22T11:47:47.820Z,19.87
2018-03-22T11:50:15.465Z,19.50
2018-03-22T11:52:43.139Z,19.77
2018-03-22T11:55:10.848Z,19.07
2018-03-22T11:57:38.478Z,19.43
2018-03-22T12:00:06.927Z,19.60
2018-03-22T12:02:34.581Z,19.87
2018-03-22T12:05:02.265Z,18.57
2018-03-22T12:07:29.957Z,18.57
2018-03-22T12:09:58.400Z,17.40
2018-03-22T12:12:26.142Z,19.03
2018-03-22T12:14:53.821Z,18.97
2018-03-22T12:17:21.483Z,19.30
2018-03-22T12:19:49.143Z,19.10
2018-03-22T12:22:16.800Z,18.83
2018-03-22T12:24:44.436Z,17.23
2018-03-22T12:27:12.075Z,17.40
2018-03-22T12:29:39.738Z,16.63
2018-03-22T12:32:07.399Z,16.87
2018-03-22T12:34:35.069Z,16.43
2018-03-22T12:37:24.803Z,17.40
2018-03-22T12:39:52.466Z,17.97
2018-03-22T12:42:20.106Z,17.67
2018-03-22T12:44:47.813Z,17.77
2018-03-22T12:47:15.651Z,17.17
2018-03-22T12:49:44.080Z,17.70
2018-03-22T12:52:11.741Z,16.80
2018-03-22T12:54:39.414Z,16.90
2018-03-22T12:57:07.067Z,15.73
2018-03-22T12:59:34.769Z,15.67
2018-03-22T13:02:02.426Z,16.10
2018-03-22T13:04:30.100Z,15.70
2018-03-22T13:06:58.791Z,15.60
2018-03-22T13:09:26.678Z,16.07
2018-03-22T13:11:54.326Z,16.30
2018-03-22T13:14:22.009Z,14.87
2018-03-22T13:16:49.691Z,14.90
2018-03-22T13:19:18.163Z,15.80
2018-03-22T13:21:45.836Z,14.63
2018-03-22T13:24:13.550Z,15.10
2018-03-22T13:26:41.210Z,14.47
2018-03-22T13:29:08.913Z,12.50
2018-03-22T13:31:36.670Z,12.07
2018-03-22T13:34:04.331Z,11.63
2018-03-22T13:36:33.142Z,10.77
2018-03-22T13:39:00.786Z,10.03
2018-03-22T13:41:28.365Z,11.90
2018-03-22T13:43:56.018Z,11.47
2018-03-22T13:46:23.668Z,11.43
2018-03-22T13:48:51.268Z,10.20
2018-03-22T13:51:20.605Z,10.43
2018-03-22T13:53:48.302Z,9.70
2018-03-22T13:56:15.921Z,10.20
2018-03-22T13:58:43.588Z,9.93
2018-03-22T14:01:11.231Z,9.70
2018-03-22T14:03:39.652Z,9.70
2018-03-22T14:06:11.038Z,9.70
2018-03-22T14:08:38.684Z,9.73
2018-03-22T14:11:06.412Z,10.23
2018-03-22T14:13:34.102Z,9.83
2018-03-22T14:16:01.762Z,8.23
2018-03-22T14:18:29.411Z,9.10
2018-03-22T14:20:57.080Z,8.03
2018-03-22T14:23:24.724Z,8.33
2018-03-22T14:25:52.420Z,7.77
2018-03-22T14:28:20.083Z,8.13
2018-03-22T14:30:47.749Z,7.17
2018-03-22T14:33:15.344Z,7.77
2018-03-22T14:35:50.532Z,7.20
2018-03-22T14:38:18.184Z,7.23
2018-03-22T14:40:45.828Z,7.10
2018-03-22T14:43:13.498Z,7.40
2018-03-22T14:45:41.085Z,6.27
2018-03-22T14:48:08.730Z,6.77
2018-03-22T14:50:36.365Z,6.77
2018-03-22T14:53:04.014Z,7.00
2018-03-22T14:55:31.682Z,7.20
2018-03-22T14:57:59.323Z,6.67
2018-03-22T15:00:26.992Z,6.70
2018-03-22T15:02:54.666Z,6.87
2018-03-22T15:05:36.048Z,5.70
2018-03-22T15:08:03.681Z,5.17
2018-03-22T15:10:31.379Z,4.90
2018-03-22T15:12:59.010Z,5.80
2018-03-22T15:15:26.654Z,5.17
2018-03-22T15:17:54.246Z,4.73
2018-03-22T15:20:21.867Z,5.13
2018-03-22T15:22:49.485Z,4.73
2018-03-22T15:25:22.879Z,6.20
2018-03-22T15:27:50.916Z,5.73
2018-03-22T15:30:18.590Z,4.87
2018-03-22T15:32:46.256Z,5.00
2018-03-22T15:35:13.889Z,4.77
2018-03-22T15:37:41.556Z,4.50
2018-03-22T15:40:09.216Z,4.13
2018-03-22T15:42:36.890Z,4.13
2018-03-22T15:45:04.593Z,4.10
2018-03-22T15:47:32.259Z,4.20
2018-03-22T15:49:59.907Z,4.00
2018-03-22T15:52:27.584Z,4.13
2018-03-22T15:55:02.728Z,3.83
2018-03-22T15:57:30.374Z,2.90
2018-03-22T15:59:58.025Z,3.00
2018-03-22T16:02:25.702Z,2.87
2018-03-22T16:04:53.304Z,2.60
2018-03-22T16:07:20.978Z,2.80
2018-03-22T16:09:48.617Z,2.90
2018-03-22T16:12:16.257Z,2.87
2018-03-22T16:14:43.957Z,2.70
2018-03-22T16:17:13.637Z,2.50
2018-03-22T16:19:41.288Z,2.20
2018-03-22T16:22:08.954Z,2.30
2018-03-22T16:24:36.629Z,2.30
2018-03-22T16:27:04.275Z,2.17
2018-03-22T16:29:31.942Z,2.20
2018-03-22T16:31:59.582Z,2.70
2018-03-22T16:34:27.239Z,2.10
2018-03-22T16:36:54.904Z,2.53
2018-03-22T16:39:22.539Z,2.10
2018-03-22T16:41:50.977Z,2.10
2018-03-22T16:44:18.615Z,2.33
2018-03-22T16:47:05.151Z,2.20
2018-03-22T16:49:32.812Z,2.50
2018-03-22T16:52:00.474Z,2.50
2018-03-22T16:54:28.130Z,2.10
2018-03-22T16:56:55.754Z,2.40
2018-03-22T16:59:23.399Z,2.20
2018-03-22T17:01:51.834Z,2.27
2018-03-22T17:04:19.447Z,2.10
2018-03-22T17:06:47.143Z,2.40
2018-03-22T17:09:14.768Z,2.03
2018-03-22T17:11:42.402Z,2.40
2018-03-22T17:14:10.077Z,3.00
2018-03-22T17:16:39.904Z,4.80
2018-03-22T17:19:08.371Z,5.40
2018-03-22T17:21:36.017Z,3.87
2018-03-22T17:24:03.704Z,4.60
2018-03-22T17:26:32.076Z,3.80
2018-03-22T17:28:59.727Z,3.90
2018-03-22T17:31:27.376Z,4.03
2018-03-22T17:33:55.049Z,3.60
2018-03-22T17:36:22.718Z,3.60
2018-03-22T17:38:50.398Z,3.57
2018-03-22T17:41:18.817Z,3.80
2018-03-22T17:43:46.482Z,3.93
2018-03-22T17:46:14.396Z,4.00
2018-03-22T17:48:42.093Z,4.50
2018-03-22T17:51:09.820Z,3.97
2018-03-22T17:53:37.470Z,4.67
2018-03-22T17:56:05.132Z,4.60
2018-03-22T17:58:32.805Z,4.47
2018-03-22T18:01:00.469Z,5.00
2018-03-22T18:03:28.138Z,5.03
2018-03-22T18:05:55.821Z,4.87
2018-03-22T18:08:24.280Z,5.10
2018-03-22T18:10:51.968Z,5.00
2018-03-22T18:13:19.683Z,5.10
2018-03-22T18:15:55.476Z,5.37
2018-03-22T18:18:23.140Z,5.93
2018-03-22T18:20:50.860Z,5.93
2018-03-22T18:23:18.539Z,6.97
2018-03-22T18:25:46.205Z,6.93
2018-03-22T18:28:13.875Z,7.07
2018-03-22T18:30:41.540Z,6.33
2018-03-22T18:33:09.199Z,6.60
2018-03-22T18:35:36.896Z,6.93
2018-03-22T18:38:04.562Z,6.47
2018-03-22T18:40:32.208Z,5.87
2018-03-22T18:42:59.873Z,5.57
2018-03-22T18:45:29.674Z,6.00
2018-03-22T18:47:57.340Z,5.87
2018-03-22T18:50:25.023Z,6.07
2018-03-22T18:52:52.685Z,6.33
2018-03-22T18:55:20.364Z,5.83
2018-03-22T18:57:48.008Z,5.83
2018-03-22T19:00:15.669Z,5.67
2018-03-22T19:02:43.315Z,6.37
2018-03-22T19:05:10.935Z,6.07
2018-03-22T19:07:38.546Z,5.70
2018-03-22T19:10:06.213Z,6.30
2018-03-22T19:12:34.400Z,6.50
2018-03-22T19:15:02.854Z,6.30
2018-03-22T19:17:30.529Z,5.90
2018-03-22T19:19:58.250Z,5.50
2018-03-22T19:22:25.925Z,5.23
2018-03-22T19:24:53.632Z,5.53
2018-03-22T19:27:21.285Z,5.00
2018-03-22T19:29:49.003Z,5.47
2018-03-22T19:32:16.660Z,4.90
2018-03-22T19:34:44.311Z,6.20
2018-03-22T19:37:19.060Z,6.70
2018-03-22T19:39:46.705Z,6.33
2018-03-22T19:42:14.612Z,8.50
2018-03-22T19:44:42.271Z,7.90
2018-03-22T19:47:09.954Z,8.60
2018-03-22T19:49:37.626Z,9.70
2018-03-22T19:52:05.317Z,8.67
2018-03-22T19:54:32.982Z,8.80
2018-03-22T19:57:00.590Z,7.77
2018-03-22T19:59:28.258Z,8.03
2018-03-22T20:01:55.878Z,7.97
2018-03-22T20:04:23.546Z,7.50
2018-03-22T20:06:54.541Z,7.33
2018-03-22T20:09:22.235Z,8.30
2018-03-22T20:11:49.860Z,7.30
2018-03-22T20:14:17.522Z,6.70
2018-03-22T20:16:45.229Z,6.63
2018-03-22T20:19:12.930Z,7.03
2018-03-22T20:21:40.533Z,6.47
2018-03-22T20:24:08.238Z,5.97
2018-03-22T20:26:35.899Z,6.37
2018-03-22T20:29:03.634Z,6.73
2018-03-22T20:31:31.218Z,7.20
2018-03-22T20:33:58.869Z,7.00
2018-03-22T20:36:26.749Z,7.97
2018-03-22T20:38:54.420Z,8.17
2018-03-22T20:41:22.087Z,7.67
2018-03-22T20:43:49.766Z,7.00
2018-03-22T20:46:17.475Z,7.13
2018-03-22T20:48:45.866Z,6.83
2018-03-22T20:51:13.540Z,6.70
2018-03-22T20:53:41.184Z,6.20
2018-03-22T20:56:09.647Z,5.93
2018-03-22T20:58:37.293Z,5.50
2018-03-22T21:01:04.992Z,5.37
2018-03-22T21:03:33.433Z,5.43
2018-03-22T21:06:01.187Z,5.27
2018-03-22T21:08:28.874Z,5.67
2018-03-22T21:10:56.554Z,5.17
2018-03-22T21:13:24.276Z,4.83
2018-03-22T21:15:51.912Z,4.93
2018-03-22T21:18:19.617Z,4.80
2018-03-22T21:20:47.338Z,5.17
2018-03-22T21:23:15.080Z,5.13
2018-03-22T21:25:42.747Z,5.90
2018-03-22T21:28:10.416Z,5.17
2018-03-22T21:30:39.160Z,5.37
2018-03-22T21:33:06.842Z,5.57
2018-03-22T21:35:34.543Z,5.80
2018-03-22T21:38:02.175Z,5.57
2018-03-22T21:40:29.850Z,6.13
2018-03-22T21:42:58.238Z,5.57
2018-03-22T21:45:25.934Z,5.47
2018-03-22T21:47:53.614Z,4.77
2018-03-22T21:50:22.046Z,4.70
2018-03-22T21:52:49.733Z,4.70
2018-03-22T21:55:17.383Z,5.57
2018-03-22T21:57:45.059Z,5.37
2018-03-22T22:00:12.777Z,5.77
2018-03-22T22:02:40.415Z,7.10
2018-03-22T22:05:09.477Z,8.33
2018-03-22T22:07:37.106Z,8.53
2018-03-22T22:10:05.579Z,8.60
2018-03-22T22:12:33.288Z,8.53
2018-03-22T22:15:01.294Z,8.50
2018-03-22T22:17:28.959Z,8.67
2018-03-22T22:19:56.638Z,8.57
2018-03-22T22:22:24.323Z,6.60
2018-03-22T22:24:52.770Z,5.70
2018-03-22T22:27:20.487Z,4.50
2018-03-22T22:29:48.486Z,4.27
2018-03-22T22:32:16.259Z,5.37
2018-03-22T22:34:43.939Z,5.07
2018-03-22T22:37:11.623Z,4.93
2018-03-22T22:39:39.264Z,5.70
2018-03-22T22:42:06.903Z,5.97
2018-03-22T22:44:34.616Z,5.93
2018-03-22T22:47:02.275Z,6.30
2018-03-22T22:49:30.687Z,6.57
2018-03-22T22:51:58.371Z,7.80
2018-03-22T22:54:26.051Z,6.23
2018-03-22T22:57:01.986Z,6.30
2018-03-22T22:59:29.600Z,6.67
2018-03-22T23:01:57.263Z,6.73
2018-03-22T23:04:24.977Z,6.10
2018-03-22T23:06:52.638Z,6.70
2018-03-22T23:09:20.321Z,5.80
2018-03-22T23:11:47.944Z,6.57
2018-03-22T23:14:15.594Z,5.97
2018-03-22T23:16:43.271Z,7.20
2018-03-22T23:19:10.963Z,6.93
2018-03-22T23:21:38.588Z,6.73
2018-03-22T23:24:06.213Z,6.77
2018-03-22T23:26:34.800Z,7.00
2018-03-22T23:29:02.455Z,7.37
2018-03-22T23:31:30.139Z,7.37
2018-03-22T23:33:57.775Z,7.70
2018-03-22T23:36:25.453Z,8.23
2018-03-22T23:38:53.112Z,8.17
2018-03-22T23:41:20.793Z,9.70
2018-03-22T23:43:49.203Z,10.33
2018-03-22T23:46:16.893Z,10.30
2018-03-22T23:48:44.593Z,10.30
2018-03-22T23:51:12.270Z,11.43
2018-03-22T23:53:40.733Z,11.30
2018-03-22T23:56:09.365Z,11.77
2018-03-22T23:58:37.075Z,11.63
